< Typhoon 198710 1987 Season Typhoon 198712 >
Typhoon 198711 (CARY)
General InformationTrack Information on Google MapsDetailed Wind InformationList of All Images || NewsDisaster Info.ResourceGoogle EarthGE AnimationAtom FeedGeoJSON
Detalied Best Track (Time Zone = UTC)
Year Month Day Hour Lat. Long. Pressure (hPa) Wind (kt) Class Image Chart
1987 8 12 06 12.0 137.5 1008 0 2 Image Chart
1987 8 12 12 12.5 136.0 1008 0 2 Image Chart
1987 8 12 18 13.2 135.1 1004 0 2 Image Chart
1987 8 13 00 13.9 134.2 1002 0 2 Image Chart
1987 8 13 06 14.4 133.4 1000 0 2 Image Chart
1987 8 13 12 14.9 132.3 1002 0 2 Image Chart
1987 8 13 18 15.4 131.0 1002 0 2 Image Chart
1987 8 14 00 15.7 130.4 1002 0 2 Image Chart
1987 8 14 06 16.0 129.8 1002 0 2 Image Chart
1987 8 14 12 16.3 128.7 1000 40 3 Image Chart
1987 8 14 18 16.3 127.7 998 40 3 Image Chart
1987 8 15 00 16.2 127.6 994 45 3 Image Chart
1987 8 15 06 16.3 127.3 992 50 4 Image Chart
1987 8 15 12 16.4 126.5 990 50 4 Image Chart
1987 8 15 18 16.5 126.2 985 55 4 Image Chart
1987 8 16 00 16.5 126.0 980 60 4 Image Chart
1987 8 16 06 16.7 125.4 980 60 4 Image Chart
1987 8 16 12 17.0 124.7 975 65 5 Image Chart
1987 8 16 18 16.9 124.2 970 70 5 Image Chart
1987 8 17 00 16.4 123.8 965 70 5 Image Chart
1987 8 17 06 16.3 123.6 965 70 5 Image Chart
1987 8 17 12 16.3 123.1 960 75 5 Image Chart
1987 8 17 18 16.2 122.4 965 70 5 Image Chart
1987 8 18 00 16.0 121.3 980 60 4 Image Chart
1987 8 18 06 15.5 120.3 985 55 4 Image Chart
1987 8 18 12 15.3 119.4 985 55 4 Image Chart
1987 8 18 18 15.2 118.5 980 55 4 Image Chart
1987 8 19 00 15.2 117.6 975 60 4 Image Chart
1987 8 19 06 15.3 116.7 970 65 5 Image Chart
1987 8 19 12 15.5 115.9 970 65 5 Image Chart
1987 8 19 18 15.6 115.0 970 65 5 Image Chart
1987 8 20 00 15.7 114.1 965 70 5 Image Chart
1987 8 20 06 15.8 113.5 965 70 5 Image Chart
1987 8 20 12 16.0 113.0 965 70 5 Image Chart
1987 8 20 18 16.2 112.5 965 70 5 Image Chart
1987 8 21 00 16.3 112.0 965 70 5 Image Chart
1987 8 21 06 16.6 111.3 970 65 5 Image Chart
1987 8 21 12 17.3 110.4 970 65 5 Image Chart
1987 8 21 18 17.9 109.1 975 60 4 Image Chart
1987 8 22 00 18.3 107.8 975 60 4 Image Chart
1987 8 22 06 18.6 106.8 975 55 4 Image Chart
1987 8 22 12 18.8 105.8 980 50 4 Image Chart
1987 8 22 18 19.0 104.5 985 45 3 Image Chart
1987 8 23 00 19.2 103.0 990 40 3 Image Chart
1987 8 23 06 19.7 101.4 994 0 2 Image Chart
1987 8 23 12 20.5 100.0 996 0 2 Image Chart
1987 8 23 18 21.5 98.5 998 0 2 Image Chart
Japan Meteorological Agency Best Track Data | Correction Date : 1992-10-21
< Typhoon 198710 1987 Season Typhoon 198712 >

Help